Time;durP1;ratioP1;P1;durP2;ratioP2;P2;SDS_P1;SDS_P2;PMS_P1;PMS_P2;Temp;Humidity;BMP_temperature;BMP_pressure;BME280_temperature;BME280_humidity;BME280_pressure;Samples;Min_cycle;Max_cycle;Signal;HPM_P1;HPM_P2
2021/07/23 00:00:28;;;;;;;5.68;2.90;;;20.20;74.20;;;;;;4947102;28;20046;-84
2021/07/23 00:02:54;;;;;;;5.28;3.20;;;20.20;74.00;;;;;;4947153;28;20022;-84
2021/07/23 00:05:20;;;;;;;5.18;2.95;;;20.10;74.30;;;;;;4996143;28;20023;-84
2021/07/23 00:07:45;;;;;;;5.47;3.00;;;20.10;74.50;;;;;;4978435;28;20042;-84
2021/07/23 00:10:11;;;;;;;4.80;3.00;;;20.10;74.90;;;;;;4978737;28;20125;-84
2021/07/23 00:12:37;;;;;;;4.85;3.17;;;20.00;74.80;;;;;;4962717;28;20057;-84
2021/07/23 00:15:03;;;;;;;5.75;3.65;;;20.00;74.80;;;;;;4962205;28;20047;-84
2021/07/23 00:17:28;;;;;;;4.50;3.20;;;19.90;74.90;;;;;;4962522;28;20038;-84
2021/07/23 00:19:54;;;;;;;4.10;2.85;;;19.90;75.20;;;;;;4946528;28;20121;-84
2021/07/23 00:22:20;;;;;;;4.53;3.20;;;19.90;75.30;;;;;;4946422;28;20026;-86
2021/07/23 00:24:45;;;;;;;4.88;3.10;;;19.80;75.20;;;;;;4978865;28;20030;-86
2021/07/23 00:27:11;;;;;;;4.00;2.85;;;19.80;75.00;;;;;;4962093;28;20035;-86
2021/07/23 00:29:36;;;;;;;5.15;3.10;;;19.80;75.60;;;;;;4962202;28;20383;-86
2021/07/23 00:32:02;;;;;;;5.07;3.15;;;19.70;75.60;;;;;;4962015;28;20030;-86
2021/07/23 00:34:28;;;;;;;5.70;3.58;;;19.70;75.50;;;;;;4962054;28;20034;-86
2021/07/23 00:36:53;;;;;;;5.63;3.53;;;19.70;75.50;;;;;;4945654;28;20027;-86
2021/07/23 00:39:19;;;;;;;4.63;3.17;;;19.60;75.80;;;;;;4946290;28;20037;-86
2021/07/23 00:41:45;;;;;;;5.63;3.30;;;19.60;76.10;;;;;;4946202;28;20041;-86
2021/07/23 00:44:10;;;;;;;5.70;3.63;;;19.60;76.20;;;;;;4961807;28;20395;-86
2021/07/23 00:46:37;;;;;;;5.80;3.63;;;19.60;76.00;;;;;;4945553;28;20033;-86
2021/07/23 00:49:03;;;;;;;6.05;3.65;;;19.50;76.30;;;;;;4961838;28;20038;-86
2021/07/23 00:51:29;;;;;;;5.22;3.20;;;19.50;76.30;;;;;;4978033;28;20033;-85
2021/07/23 00:53:56;;;;;;;7.82;4.28;;;19.50;76.40;;;;;;4961952;28;20030;-86
2021/07/23 00:56:22;;;;;;;4.80;3.22;;;19.40;76.50;;;;;;4978330;28;20054;-86
2021/07/23 00:58:48;;;;;;;5.40;3.65;;;19.30;76.70;;;;;;4987258;28;20065;-86
2021/07/23 01:01:13;;;;;;;5.78;3.67;;;19.30;76.70;;;;;;4980907;28;20021;-86
2021/07/23 01:03:40;;;;;;;5.40;3.70;;;19.30;76.80;;;;;;4997063;28;20029;-86
2021/07/23 01:06:05;;;;;;;7.13;4.35;;;19.30;77.10;;;;;;4997247;28;20565;-86
2021/07/23 01:08:31;;;;;;;5.63;3.55;;;19.20;77.20;;;;;;4997215;28;20112;-86
2021/07/23 01:10:57;;;;;;;5.82;3.90;;;19.20;77.20;;;;;;4980811;28;20053;-86
2021/07/23 01:13:25;;;;;;;6.10;4.00;;;19.10;77.40;;;;;;4980643;28;20028;-86
2021/07/23 01:15:51;;;;;;;5.45;3.80;;;19.10;77.70;;;;;;4997006;28;20026;-86
2021/07/23 01:18:16;;;;;;;5.82;3.92;;;19.10;77.40;;;;;;4980810;28;20474;-86
2021/07/23 01:20:44;;;;;;;5.30;3.72;;;19.00;77.70;;;;;;5014580;28;20088;-86
2021/07/23 01:23:13;;;;;;;5.32;3.88;;;19.00;77.90;;;;;;4996459;28;20022;-86
2021/07/23 01:25:39;;;;;;;6.07;3.95;;;18.90;77.70;;;;;;4996880;28;20378;-86
2021/07/23 01:28:06;;;;;;;5.47;3.22;;;18.90;78.10;;;;;;4980966;28;20037;-86
2021/07/23 01:30:34;;;;;;;6.05;3.85;;;18.90;78.20;;;;;;4965975;28;20467;-87
2021/07/23 01:33:00;;;;;;;5.72;4.00;;;18.80;78.10;;;;;;4996963;28;20029;-87
2021/07/23 01:35:25;;;;;;;4.95;3.47;;;18.80;78.60;;;;;;4980257;28;20030;-85
2021/07/23 01:37:55;;;;;;;4.97;3.75;;;18.80;79.20;;;;;;4964391;28;20467;-86
2021/07/23 01:40:21;;;;;;;6.25;3.67;;;18.70;78.70;;;;;;4997479;28;20145;-86
2021/07/23 01:42:47;;;;;;;5.97;3.78;;;18.70;78.70;;;;;;4997125;28;20066;-86
2021/07/23 01:45:13;;;;;;;6.88;3.83;;;18.70;79.00;;;;;;4979979;28;20038;-86
2021/07/23 01:47:39;;;;;;;6.75;3.85;;;18.60;78.80;;;;;;4996525;28;20437;-86
2021/07/23 01:50:05;;;;;;;6.45;4.00;;;18.60;78.90;;;;;;4980214;28;20386;-86
2021/07/23 01:52:32;;;;;;;6.68;3.88;;;18.60;79.20;;;;;;4996868;28;20034;-86
2021/07/23 01:54:58;;;;;;;5.32;3.42;;;18.50;79.20;;;;;;4996265;28;20030;-86
2021/07/23 01:57:25;;;;;;;6.03;4.03;;;18.50;79.20;;;;;;4996444;28;20041;-86
2021/07/23 01:59:50;;;;;;;5.70;3.38;;;18.50;79.40;;;;;;4976617;28;20062;-86
2021/07/23 02:02:16;;;;;;;6.40;3.80;;;18.50;79.70;;;;;;4992889;28;20857;-85
2021/07/23 02:04:41;;;;;;;6.25;4.22;;;18.40;79.80;;;;;;4976939;28;20026;-85
2021/07/23 02:07:07;;;;;;;8.18;4.45;;;18.40;80.10;;;;;;4976591;28;20172;-86
2021/07/23 02:09:33;;;;;;;5.57;4.22;;;18.40;80.20;;;;;;4992777;28;20396;-86
2021/07/23 02:11:58;;;;;;;8.10;5.20;;;18.40;80.00;;;;;;4993430;28;20029;-86
2021/07/23 02:14:28;;;;;;;6.40;4.75;;;18.30;80.20;;;;;;4976652;28;20041;-84
2021/07/23 02:16:54;;;;;;;6.43;4.43;;;18.30;80.20;;;;;;4992746;28;20022;-85
2021/07/23 02:19:20;;;;;;;7.18;4.40;;;18.30;80.50;;;;;;4992415;28;20022;-85
2021/07/23 02:21:46;;;;;;;6.18;4.38;;;18.20;80.50;;;;;;4992659;28;20206;-85
2021/07/23 02:24:11;;;;;;;5.85;4.40;;;18.20;80.70;;;;;;4960533;28;20379;-85
2021/07/23 02:26:37;;;;;;;6.03;4.43;;;18.20;80.70;;;;;;4976777;28;20197;-85
2021/07/23 02:29:03;;;;;;;5.88;4.35;;;18.20;80.80;;;;;;4960116;28;20050;-86
2021/07/23 02:31:28;;;;;;;6.90;4.30;;;18.10;81.10;;;;;;4976184;28;20026;-86
2021/07/23 02:33:54;;;;;;;8.02;4.53;;;18.10;81.00;;;;;;4976433;28;20117;-85
2021/07/23 02:36:20;;;;;;;6.15;4.47;;;18.00;81.10;;;;;;4976185;28;20058;-85
2021/07/23 02:38:46;;;;;;;6.32;4.25;;;18.10;81.30;;;;;;4994084;28;20034;-86
2021/07/23 02:41:11;;;;;;;6.22;4.32;;;18.00;81.40;;;;;;4991790;28;20411;-85
2021/07/23 02:43:37;;;;;;;6.35;4.35;;;18.00;81.40;;;;;;4975862;28;20029;-85
2021/07/23 02:46:02;;;;;;;6.32;4.53;;;17.90;81.60;;;;;;4991552;28;20027;-86
2021/07/23 02:48:28;;;;;;;6.43;4.30;;;17.90;81.60;;;;;;4993752;28;20040;-85
2021/07/23 02:50:54;;;;;;;6.07;4.38;;;17.90;81.70;;;;;;4976536;28;20058;-85
2021/07/23 02:53:20;;;;;;;5.88;4.60;;;17.80;81.70;;;;;;4993278;28;20494;-85
2021/07/23 02:55:50;;;;;;;6.15;4.38;;;17.80;82.10;;;;;;4976149;28;20072;-85
2021/07/23 02:58:15;;;;;;;6.72;4.65;;;17.80;82.00;;;;;;4992768;28;20471;-85
2021/07/23 03:00:41;;;;;;;5.80;4.68;;;17.80;81.90;;;;;;4960515;28;20050;-85
2021/07/23 03:03:07;;;;;;;5.95;4.43;;;17.70;81.80;;;;;;4943808;28;20597;-85
2021/07/23 03:05:32;;;;;;;7.30;4.55;;;17.70;82.10;;;;;;4976183;28;20387;-83
2021/07/23 03:07:58;;;;;;;8.35;4.85;;;17.60;82.00;;;;;;4959726;28;20121;-86
2021/07/23 03:10:24;;;;;;;6.20;4.70;;;17.60;82.30;;;;;;4944998;28;20506;-85
2021/07/23 03:12:49;;;;;;;6.78;4.43;;;17.60;82.20;;;;;;4947863;28;20026;-85
2021/07/23 03:15:15;;;;;;;6.22;4.18;;;17.50;82.20;;;;;;4947738;28;20031;-85
2021/07/23 03:17:41;;;;;;;5.88;4.15;;;17.50;82.30;;;;;;4979839;28;20034;-85
2021/07/23 03:20:07;;;;;;;7.78;4.60;;;17.50;82.50;;;;;;4979451;28;20089;-85
2021/07/23 03:22:33;;;;;;;7.95;4.40;;;17.50;82.70;;;;;;4963111;28;20093;-85
2021/07/23 03:25:01;;;;;;;5.95;4.07;;;17.40;82.70;;;;;;4963414;28;20034;-85
2021/07/23 03:27:27;;;;;;;7.45;4.43;;;17.40;83.10;;;;;;4963130;28;20026;-85
2021/07/23 03:29:53;;;;;;;8.55;4.70;;;17.40;83.00;;;;;;4996694;28;20033;-85
2021/07/23 03:32:18;;;;;;;5.55;4.10;;;17.40;83.70;;;;;;4979023;28;20030;-86
2021/07/23 03:34:44;;;;;;;6.75;4.70;;;17.30;83.20;;;;;;4963059;28;20034;-85
2021/07/23 03:37:10;;;;;;;7.32;4.75;;;17.30;83.30;;;;;;4962980;28;20066;-85
2021/07/23 03:39:35;;;;;;;6.85;4.45;;;17.30;83.30;;;;;;4962886;28;20030;-85
2021/07/23 03:42:01;;;;;;;6.20;4.63;;;17.20;83.50;;;;;;4947017;28;20054;-86
2021/07/23 03:44:26;;;;;;;6.80;4.55;;;17.20;83.50;;;;;;4963002;28;20092;-85
2021/07/23 03:46:52;;;;;;;6.50;4.40;;;17.20;83.60;;;;;;4962615;28;20026;-85
2021/07/23 03:49:18;;;;;;;6.40;4.55;;;17.20;83.90;;;;;;4996318;28;20030;-85
2021/07/23 03:51:43;;;;;;;8.77;4.10;;;17.10;83.80;;;;;;4963119;28;20023;-85
2021/07/23 03:54:09;;;;;;;7.85;4.30;;;17.10;84.20;;;;;;4962785;28;20033;-86
2021/07/23 03:56:35;;;;;;;6.35;4.32;;;17.10;84.30;;;;;;4996661;28;20030;-85
2021/07/23 03:59:00;;;;;;;6.13;4.68;;;17.00;84.10;;;;;;5001555;28;20100;-85
2021/07/23 04:01:26;;;;;;;6.53;4.40;;;17.00;84.40;;;;;;4982491;28;20026;-85
2021/07/23 04:03:51;;;;;;;8.50;4.63;;;17.00;84.50;;;;;;4998358;28;20443;-85
2021/07/23 04:06:17;;;;;;;6.15;4.50;;;17.00;84.70;;;;;;5015792;28;20029;-85
2021/07/23 04:08:43;;;;;;;6.50;4.50;;;16.90;84.80;;;;;;4982087;28;20466;-85
2021/07/23 04:11:14;;;;;;;6.28;4.65;;;16.90;85.20;;;;;;4982277;28;20396;-88
2021/07/23 04:13:40;;;;;;;;;;;16.90;85.20;;;;;;4999202;28;20029;-85
2021/07/23 04:16:05;;;;;;;8.13;4.97;;;16.90;85.40;;;;;;4998464;28;19910;-85
2021/07/23 04:18:31;;;;;;;8.88;4.70;;;16.90;85.40;;;;;;4965953;28;20124;-85
2021/07/23 04:20:57;;;;;;;8.25;4.78;;;16.90;85.80;;;;;;4965900;28;20026;-85
2021/07/23 04:23:22;;;;;;;7.13;5.10;;;16.90;85.70;;;;;;4981834;28;20034;-85
2021/07/23 04:25:48;;;;;;;7.80;4.97;;;16.90;86.00;;;;;;4981901;28;20029;-85
2021/07/23 04:28:14;;;;;;;9.00;5.05;;;16.90;86.70;;;;;;4981357;28;20025;-86
2021/07/23 04:30:39;;;;;;;7.55;5.07;;;16.90;86.10;;;;;;4981775;28;20030;-85
2021/07/23 04:33:05;;;;;;;6.63;4.50;;;16.90;86.20;;;;;;4981650;28;20037;-85
2021/07/23 04:35:30;;;;;;;7.97;4.88;;;16.90;86.10;;;;;;4997524;28;20041;-85
2021/07/23 04:37:56;;;;;;;9.10;4.93;;;16.90;86.10;;;;;;4998032;28;20036;-85
2021/07/23 04:40:22;;;;;;;6.90;4.80;;;16.90;86.50;;;;;;4981123;28;20057;-85
2021/07/23 04:42:47;;;;;;;7.20;5.00;;;16.90;86.20;;;;;;5015193;28;20034;-85
2021/07/23 04:45:14;;;;;;;9.95;4.70;;;16.90;86.60;;;;;;4964858;28;20037;-86
2021/07/23 04:47:39;;;;;;;6.78;4.70;;;16.80;86.50;;;;;;4981149;28;20036;-85
2021/07/23 04:50:05;;;;;;;7.03;4.85;;;16.80;86.70;;;;;;4964987;28;20030;-85
2021/07/23 04:52:31;;;;;;;6.45;4.53;;;16.90;86.70;;;;;;4997357;28;20018;-85
2021/07/23 04:54:57;;;;;;;6.30;4.63;;;16.80;86.80;;;;;;4998136;28;20030;-85
2021/07/23 04:57:28;;;;;;;6.82;4.47;;;16.80;87.00;;;;;;4997497;28;20030;-85
2021/07/23 04:59:54;;;;;;;6.22;4.72;;;16.90;87.30;;;;;;4981805;28;20054;-85
2021/07/23 05:02:20;;;;;;;6.20;4.38;;;16.80;87.40;;;;;;4997681;28;20034;-86
2021/07/23 05:04:45;;;;;;;7.22;5.38;;;16.80;87.50;;;;;;4997442;28;20041;-85
2021/07/23 05:07:11;;;;;;;6.60;4.38;;;16.80;87.60;;;;;;4981049;28;20060;-85
2021/07/23 05:09:36;;;;;;;8.25;5.93;;;16.80;87.90;;;;;;4981133;28;20434;-85
2021/07/23 05:12:03;;;;;;;6.55;4.63;;;16.90;88.00;;;;;;4964654;28;20026;-85
2021/07/23 05:14:31;;;;;;;8.43;4.82;;;16.90;88.20;;;;;;4997264;28;20026;-86
2021/07/23 05:17:00;;;;;;;6.78;4.88;;;16.90;88.30;;;;;;4981835;28;20068;-85
2021/07/23 05:19:26;;;;;;;6.25;4.65;;;16.90;88.50;;;;;;4981543;28;20030;-85
2021/07/23 05:22:02;;;;;;;8.35;4.80;;;16.90;88.60;;;;;;4980807;28;20022;-85
2021/07/23 05:24:30;;;;;;;7.15;4.65;;;16.90;88.80;;;;;;4996794;28;20156;-85
2021/07/23 05:26:56;;;;;;;7.00;4.47;;;16.90;88.90;;;;;;4997047;28;20486;-85
2021/07/23 05:29:21;;;;;;;7.97;4.68;;;17.00;88.90;;;;;;4983554;28;20041;-86
2021/07/23 05:31:47;;;;;;;6.25;4.15;;;17.00;89.00;;;;;;5002116;28;20496;-85
2021/07/23 05:34:12;;;;;;;7.57;5.10;;;17.00;89.00;;;;;;4986630;28;20021;-85
2021/07/23 05:36:38;;;;;;;5.65;4.20;;;17.10;89.10;;;;;;4986102;28;20033;-85
2021/07/23 05:39:04;;;;;;;6.20;4.28;;;17.10;89.20;;;;;;5001193;28;20152;-84
2021/07/23 05:41:30;;;;;;;7.00;4.25;;;17.10;89.10;;;;;;4993839;28;20076;-85
2021/07/23 05:43:57;;;;;;;5.57;3.63;;;17.10;89.20;;;;;;5001025;28;20030;-83
2021/07/23 05:46:23;;;;;;;6.43;4.07;;;17.20;89.20;;;;;;4997627;28;20447;-83
2021/07/23 05:48:48;;;;;;;6.15;3.80;;;17.20;89.20;;;;;;4964425;28;20133;-83
2021/07/23 05:51:14;;;;;;;4.65;3.63;;;17.30;89.40;;;;;;5014096;28;20108;-83
2021/07/23 05:53:39;;;;;;;7.30;3.90;;;17.30;89.30;;;;;;4980311;28;20026;-83
2021/07/23 05:56:06;;;;;;;7.63;3.72;;;17.30;89.20;;;;;;4980802;28;20041;-83
2021/07/23 05:58:32;;;;;;;5.22;3.53;;;17.30;89.20;;;;;;4980355;28;20535;-83
2021/07/23 06:00:57;;;;;;;5.18;3.42;;;17.40;89.20;;;;;;4996008;28;20054;-84
2021/07/23 06:03:23;;;;;;;5.18;3.38;;;17.40;89.30;;;;;;5013970;28;20113;-83
2021/07/23 06:05:49;;;;;;;4.63;3.30;;;17.40;89.10;;;;;;5013820;28;20355;-83
2021/07/23 06:08:15;;;;;;;5.05;3.20;;;17.40;88.80;;;;;;4995793;28;20057;-83
2021/07/23 06:10:41;;;;;;;5.38;3.05;;;17.50;88.70;;;;;;5013724;28;20117;-83
2021/07/23 06:13:06;;;;;;;4.50;2.92;;;17.50;88.70;;;;;;4980332;28;20478;-83
2021/07/23 06:15:32;;;;;;;4.35;2.90;;;17.50;88.80;;;;;;4996139;28;20053;-85
2021/07/23 06:17:59;;;;;;;6.65;3.00;;;17.50;88.80;;;;;;4981410;28;20044;-87
2021/07/23 06:20:24;;;;;;;3.95;2.60;;;17.60;88.40;;;;;;5014756;28;20026;-86
2021/07/23 06:22:57;;;;;;;5.32;2.72;;;17.60;88.50;;;;;;4966866;28;20026;-86
2021/07/23 06:25:23;;;;;;;4.78;2.83;;;17.60;88.60;;;;;;5013659;28;20493;-86
2021/07/23 06:27:49;;;;;;;4.35;2.90;;;17.70;88.70;;;;;;4980015;28;20029;-85
2021/07/23 06:30:15;;;;;;;3.47;2.67;;;17.70;88.70;;;;;;4995979;28;20026;-85
2021/07/23 06:32:40;;;;;;;4.65;2.92;;;17.70;88.70;;;;;;4979758;28;20033;-85
2021/07/23 06:35:07;;;;;;;3.28;2.10;;;17.80;88.80;;;;;;4980645;28;20022;-87
2021/07/23 06:37:33;;;;;;;4.28;2.83;;;17.80;88.80;;;;;;4977141;28;20030;-86
2021/07/23 06:39:58;;;;;;;4.70;2.38;;;17.90;89.10;;;;;;5014203;28;20033;-85
2021/07/23 06:42:24;;;;;;;3.67;2.28;;;17.90;89.80;;;;;;4995332;28;20069;-85
2021/07/23 06:44:50;;;;;;;4.22;2.47;;;18.00;89.20;;;;;;4995959;28;20022;-84
2021/07/23 06:47:17;;;;;;;4.55;2.80;;;18.00;89.20;;;;;;5000888;28;20139;-85
2021/07/23 06:49:42;;;;;;;3.40;2.60;;;18.10;89.20;;;;;;4984606;28;20455;-85
2021/07/23 06:52:08;;;;;;;5.03;2.92;;;18.10;89.30;;;;;;5000741;28;20029;-85
2021/07/23 06:54:35;;;;;;;3.72;2.72;;;18.20;89.40;;;;;;4984146;28;20030;-84
2021/07/23 06:57:04;;;;;;;4.53;3.08;;;18.20;89.40;;;;;;5000168;28;20099;-84
2021/07/23 06:59:34;;;;;;;3.45;2.53;;;18.30;89.30;;;;;;4983517;28;20046;-85
2021/07/23 07:02:01;;;;;;;4.70;2.97;;;18.30;89.00;;;;;;4998155;28;20483;-81
2021/07/23 07:04:26;;;;;;;5.57;3.03;;;18.40;88.40;;;;;;4983120;28;20045;-85
2021/07/23 07:06:56;;;;;;;3.30;2.67;;;18.40;87.90;;;;;;4984045;28;20030;-85
2021/07/23 07:09:27;;;;;;;4.97;3.08;;;18.50;87.70;;;;;;4999799;28;20478;-85
2021/07/23 07:11:55;;;;;;;5.43;2.72;;;18.50;87.70;;;;;;4999748;28;20033;-85
2021/07/23 07:14:22;;;;;;;6.20;3.17;;;18.60;87.80;;;;;;4983732;28;20022;-86
2021/07/23 07:16:48;;;;;;;3.53;2.70;;;18.60;87.60;;;;;;4999341;28;20022;-84
2021/07/23 07:19:14;;;;;;;4.43;2.75;;;18.70;87.50;;;;;;4983853;28;20553;-85
2021/07/23 07:21:45;;;;;;;4.07;2.80;;;18.70;87.50;;;;;;4999113;28;20021;-85
2021/07/23 07:24:11;;;;;;;3.60;2.53;;;18.80;87.40;;;;;;4984043;28;20033;-86
2021/07/23 07:26:37;;;;;;;4.50;2.90;;;18.80;87.00;;;;;;4998968;28;20034;-84
2021/07/23 07:29:02;;;;;;;4.20;2.80;;;18.90;86.70;;;;;;4998973;28;20117;-85
2021/07/23 07:31:28;;;;;;;4.78;3.20;;;19.00;86.90;;;;;;4966583;28;20061;-86
2021/07/23 07:33:53;;;;;;;6.43;3.20;;;19.10;86.60;;;;;;4982853;28;20034;-83
2021/07/23 07:36:19;;;;;;;3.75;2.55;;;19.10;86.40;;;;;;4984403;28;20033;-84
2021/07/23 07:38:45;;;;;;;5.25;3.05;;;19.20;86.30;;;;;;4967069;28;20463;-85
2021/07/23 07:41:16;;;;;;;4.35;2.60;;;19.30;85.60;;;;;;4999515;28;20482;-84
2021/07/23 07:43:42;;;;;;;3.85;2.60;;;19.40;85.60;;;;;;4998875;28;20037;-84
2021/07/23 07:46:07;;;;;;;4.53;3.08;;;19.40;85.60;;;;;;4999686;28;20026;-84
2021/07/23 07:48:33;;;;;;;4.28;2.70;;;19.50;85.70;;;;;;5017394;28;20065;-84
2021/07/23 07:50:59;;;;;;;5.97;3.20;;;19.60;85.60;;;;;;4999608;28;20375;-84
2021/07/23 07:53:24;;;;;;;4.45;2.92;;;19.70;85.20;;;;;;4999291;28;20036;-84
2021/07/23 07:55:50;;;;;;;4.20;2.90;;;19.80;85.20;;;;;;4998530;28;20093;-84
2021/07/23 07:58:16;;;;;;;3.83;2.80;;;19.80;85.20;;;;;;4983065;28;20458;-85
2021/07/23 08:00:42;;;;;;;4.20;2.67;;;19.90;84.90;;;;;;4968559;28;20050;-85
2021/07/23 08:03:14;;;;;;;4.22;2.97;;;20.00;84.60;;;;;;5003412;28;20116;-91
2021/07/23 08:05:40;;;;;;;5.95;2.78;;;20.00;84.20;;;;;;4999484;28;20057;-90
2021/07/23 08:08:09;;;;;;;3.47;2.70;;;20.10;84.10;;;;;;4970828;28;20483;-90
2021/07/23 08:10:36;;;;;;;4.65;2.83;;;20.10;83.60;;;;;;4991943;28;20022;-90
2021/07/23 08:13:05;;;;;;;4.03;2.60;;;20.20;83.60;;;;;;4967502;28;20030;-90
2021/07/23 08:15:31;;;;;;;3.63;2.80;;;20.30;83.50;;;;;;4981158;28;20034;-90
2021/07/23 08:17:58;;;;;;;4.25;2.60;;;20.30;82.90;;;;;;5017381;28;20022;-90
2021/07/23 08:20:24;;;;;;;3.50;2.35;;;20.40;82.80;;;;;;4997427;28;20038;-90
2021/07/23 08:22:50;;;;;;;4.25;2.90;;;20.50;82.60;;;;;;4965106;28;20023;-90
2021/07/23 08:25:16;;;;;;;4.38;2.92;;;20.60;82.30;;;;;;4979447;28;20030;-90
2021/07/23 08:27:41;;;;;;;4.93;2.75;;;20.60;81.70;;;;;;4961670;28;20027;-91
2021/07/23 08:30:07;;;;;;;3.80;2.60;;;20.70;81.70;;;;;;4962866;28;20038;-91
2021/07/23 08:32:36;;;;;;;4.25;2.90;;;20.80;81.60;;;;;;4980030;28;20114;-90
2021/07/23 08:35:03;;;;;;;3.90;2.75;;;20.90;81.40;;;;;;4998689;28;20533;-89
2021/07/23 08:37:29;;;;;;;4.55;2.90;;;21.00;81.20;;;;;;4984368;28;20409;-90
2021/07/23 08:39:55;;;;;;;5.47;3.05;;;21.20;81.00;;;;;;4962921;28;20126;-91
2021/07/23 08:42:30;;;;;;;4.65;3.00;;;21.20;80.70;;;;;;4991883;28;20041;-91
2021/07/23 08:44:57;;;;;;;4.75;2.83;;;21.30;80.50;;;;;;4984647;28;20727;-92
2021/07/23 08:47:23;;;;;;;4.32;2.67;;;21.40;80.10;;;;;;4998829;28;20038;-91
2021/07/23 08:49:50;;;;;;;5.18;2.90;;;21.40;80.00;;;;;;4997275;28;20117;-90
2021/07/23 08:52:16;;;;;;;4.05;2.60;;;21.50;80.10;;;;;;4969495;28;20061;-92
2021/07/23 08:54:44;;;;;;;4.93;2.75;;;21.60;80.20;;;;;;4997291;28;20034;-91
2021/07/23 08:57:10;;;;;;;3.58;2.47;;;21.70;80.30;;;;;;4971348;28;20022;-93
2021/07/23 08:59:37;;;;;;;3.90;2.55;;;21.80;80.00;;;;;;4980364;28;20030;-93
2021/07/23 09:02:04;;;;;;;3.65;2.80;;;21.80;79.70;;;;;;4996687;28;20022;-92
2021/07/23 09:04:32;;;;;;;5.80;2.70;;;22.00;79.20;;;;;;4988099;28;20054;-94
2021/07/23 09:07:19;;;;;;;6.43;2.63;;;22.00;78.70;;;;;;4977805;28;20120;-91
2021/07/23 09:10:03;;;;;;;6.00;3.08;;;22.10;79.60;;;;;;5002884;28;20113;-94
2021/07/23 09:12:42;;;;;;;4.13;2.80;;;22.10;77.90;;;;;;4996869;28;20022;-88
2021/07/23 09:15:43;;;;;;;3.72;2.95;;;22.20;78.50;;;;;;4982682;28;20113;-91
2021/07/23 09:18:30;;;;;;;5.15;2.90;;;22.20;77.70;;;;;;4888643;29;20100;-91
2021/07/23 09:20:58;;;;;;;3.50;2.53;;;22.30;78.40;;;;;;4977678;28;20040;-89
2021/07/23 09:23:29;;;;;;;6.43;2.60;;;22.40;78.30;;;;;;5013776;28;20034;-89
2021/07/23 09:25:55;;;;;;;4.90;3.58;;;22.40;78.50;;;;;;5013656;28;20105;-91
2021/07/23 09:28:30;;;;;;;5.38;3.30;;;22.40;77.90;;;;;;4961231;28;20022;-88
2021/07/23 09:31:02;;;;;;;5.88;2.97;;;22.50;78.00;;;;;;4980750;28;20434;-91
2021/07/23 09:33:39;;;;;;;3.60;2.60;;;22.50;78.20;;;;;;4997109;28;20049;-91
2021/07/23 09:36:07;;;;;;;3.92;2.67;;;22.60;78.10;;;;;;5016042;28;20459;-91
2021/07/23 09:38:35;;;;;;;4.05;2.40;;;22.60;78.60;;;;;;4982747;28;20033;-95
2021/07/23 09:41:01;;;;;;;4.53;2.50;;;22.60;78.20;;;;;;4978057;28;20022;-93
2021/07/23 09:43:39;;;;;;;4.03;2.72;;;22.60;78.50;;;;;;4970772;28;20069;-94
2021/07/23 09:46:17;;;;;;;6.55;2.88;;;22.70;78.10;;;;;;5013771;28;20041;-86
2021/07/23 09:48:46;;;;;;;4.93;2.75;;;22.70;77.70;;;;;;4982247;28;20026;-87
2021/07/23 09:51:12;;;;;;;5.30;2.47;;;22.70;77.80;;;;;;4978209;28;20039;-87
2021/07/23 09:53:38;;;;;;;4.25;2.50;;;22.80;77.90;;;;;;4995515;28;20394;-88
2021/07/23 09:56:08;;;;;;;3.78;2.35;;;22.80;78.20;;;;;;4975241;28;20068;-87
2021/07/23 09:58:37;;;;;;;3.33;2.30;;;22.80;77.30;;;;;;4973205;28;20077;-86
2021/07/23 10:01:08;;;;;;;4.45;2.45;;;22.90;77.90;;;;;;4990220;28;20041;-86
2021/07/23 10:03:36;;;;;;;4.03;2.55;;;22.90;78.40;;;;;;5000918;28;20483;-86
2021/07/23 10:06:29;;;;;;;3.30;2.30;;;23.00;78.70;;;;;;4978613;28;20026;-86
2021/07/23 10:09:00;;;;;;;4.78;2.60;;;23.00;78.60;;;;;;5001193;28;20068;-86
2021/07/23 10:11:26;;;;;;;5.20;3.13;;;23.10;78.60;;;;;;4977557;28;20026;-86
2021/07/23 10:13:59;;;;;;;5.00;2.53;;;23.20;78.10;;;;;;4978660;28;20037;-87
2021/07/23 10:16:25;;;;;;;4.40;2.88;;;23.20;77.50;;;;;;4989238;28;20029;-86
2021/07/23 10:18:52;;;;;;;5.30;3.10;;;23.20;76.60;;;;;;4966527;28;20037;-87
2021/07/23 10:21:17;;;;;;;4.43;3.08;;;23.20;76.80;;;;;;4959278;28;20030;-87
2021/07/23 10:23:45;;;;;;;3.60;2.85;;;23.30;77.20;;;;;;4992654;28;20364;-86
2021/07/23 10:26:12;;;;;;;4.20;2.83;;;23.30;76.80;;;;;;5006712;28;20080;-87
2021/07/23 10:28:41;;;;;;;4.38;2.60;;;23.30;76.60;;;;;;5008498;28;20117;-88
2021/07/23 10:31:24;;;;;;;4.93;3.05;;;23.30;76.20;;;;;;4975512;28;20408;-88
2021/07/23 10:34:00;;;;;;;6.45;3.15;;;23.30;74.90;;;;;;4993302;28;20846;-85
2021/07/23 10:36:26;;;;;;;5.00;2.90;;;23.20;75.30;;;;;;4975353;28;20034;-84
2021/07/23 10:39:10;;;;;;;5.40;3.30;;;23.20;75.90;;;;;;5005343;28;20105;-83
2021/07/23 10:41:43;;;;;;;4.57;2.80;;;23.20;76.30;;;;;;4975157;28;20022;-84
2021/07/23 10:44:29;;;;;;;5.63;2.83;;;23.20;76.40;;;;;;5011931;28;20053;-84
2021/07/23 10:46:59;;;;;;;4.40;2.83;;;23.20;76.00;;;;;;4992244;28;20038;-84
2021/07/23 10:49:25;;;;;;;5.88;3.00;;;23.30;76.00;;;;;;4997324;28;20076;-84
2021/07/23 10:51:54;;;;;;;5.50;3.03;;;23.30;76.90;;;;;;4985315;28;20066;-84
2021/07/23 10:54:24;;;;;;;4.20;2.88;;;23.30;76.20;;;;;;4965387;28;20089;-85
2021/07/23 10:59:39;;;;;;;4.50;3.08;;;23.40;74.70;;;;;;4996498;28;20122;-85
2021/07/23 11:02:31;;;;;;;4.13;2.80;;;23.40;74.30;;;;;;4986084;28;20058;-85
2021/07/23 11:05:06;;;;;;;4.97;2.88;;;23.40;73.20;;;;;;4981512;28;20058;-83
2021/07/23 11:07:32;;;;;;;5.68;3.13;;;23.40;74.10;;;;;;4980165;28;20030;-85
2021/07/23 11:09:59;;;;;;;4.35;3.10;;;23.50;74.60;;;;;;4984110;28;20030;-84
2021/07/23 11:12:26;;;;;;;5.90;3.30;;;23.50;75.10;;;;;;4982092;28;20026;-85
2021/07/23 11:14:52;;;;;;;3.90;2.90;;;23.60;74.40;;;;;;4975951;28;20022;-86
2021/07/23 11:17:19;;;;;;;4.13;2.90;;;23.60;74.30;;;;;;4962160;28;20629;-86
2021/07/23 11:19:49;;;;;;;4.68;3.10;;;23.70;74.40;;;;;;4983412;28;20029;-87
2021/07/23 11:22:28;;;;;;;5.28;2.83;;;23.70;73.50;;;;;;4997606;28;20023;-86
2021/07/23 11:24:55;;;;;;;4.38;3.05;;;23.80;73.80;;;;;;5006845;28;20133;-88
2021/07/23 11:27:29;;;;;;;4.38;3.05;;;23.80;73.80;;;;;;5007567;28;20038;-87
2021/07/23 11:29:58;;;;;;;3.58;2.85;;;23.90;73.10;;;;;;4999490;28;20073;-86
2021/07/23 11:32:24;;;;;;;4.43;3.08;;;23.90;73.40;;;;;;4973614;28;20481;-87
2021/07/23 11:35:08;;;;;;;4.00;2.90;;;24.00;73.30;;;;;;4993290;28;20030;-87
2021/07/23 11:37:36;;;;;;;5.88;3.05;;;24.00;73.00;;;;;;5004773;28;20113;-86
2021/07/23 11:40:11;;;;;;;4.13;3.10;;;24.10;73.60;;;;;;4978556;28;20092;-87
2021/07/23 11:42:39;;;;;;;5.00;3.10;;;24.10;74.00;;;;;;4983116;28;20033;-86
2021/07/23 11:45:06;;;;;;;5.10;3.30;;;24.10;73.60;;;;;;4988523;28;20505;-86
2021/07/23 11:47:40;;;;;;;4.28;2.92;;;24.10;73.40;;;;;;4997048;28;20490;-87
2021/07/23 11:50:15;;;;;;;6.57;3.33;;;24.10;73.70;;;;;;4977752;28;20078;-87
2021/07/23 11:52:42;;;;;;;4.50;3.05;;;24.10;73.70;;;;;;4994165;28;20080;-86
2021/07/23 11:55:17;;;;;;;4.25;2.88;;;24.10;73.70;;;;;;4998798;28;20514;-87
2021/07/23 11:57:47;;;;;;;5.18;3.55;;;24.20;72.20;;;;;;4976214;28;20038;-87
2021/07/23 12:00:21;;;;;;;4.97;3.60;;;24.20;73.10;;;;;;4986067;28;20060;-86
2021/07/23 12:02:51;;;;;;;4.70;3.58;;;24.20;73.00;;;;;;4997913;28;20485;-86
2021/07/23 12:05:17;;;;;;;5.00;3.50;;;24.30;72.70;;;;;;4995520;28;20037;-86
2021/07/23 12:07:55;;;;;;;5.43;4.10;;;24.30;72.60;;;;;;5003350;28;20037;-87
2021/07/23 12:10:21;;;;;;;5.22;3.58;;;24.30;71.70;;;;;;4988331;28;20018;-87
2021/07/23 12:12:46;;;;;;;5.05;3.65;;;24.30;72.30;;;;;;5009639;28;20033;-87
2021/07/23 12:15:13;;;;;;;5.82;4.13;;;24.30;72.30;;;;;;5013362;28;20053;-88
2021/07/23 12:17:46;;;;;;;5.93;4.20;;;24.30;72.10;;;;;;5015947;28;20038;-86
2021/07/23 12:20:14;;;;;;;4.47;3.15;;;24.40;72.10;;;;;;4998022;28;20485;-86
2021/07/23 12:22:40;;;;;;;6.20;3.78;;;24.50;72.20;;;;;;5004006;28;20029;-87
2021/07/23 12:25:21;;;;;;;4.25;3.40;;;24.50;71.70;;;;;;4971709;28;20062;-88
2021/07/23 12:27:54;;;;;;;4.65;3.25;;;24.60;71.50;;;;;;5005646;28;20033;-87
2021/07/23 12:30:33;;;;;;;5.85;3.70;;;24.60;71.70;;;;;;4978147;28;20081;-86
2021/07/23 12:33:10;;;;;;;5.63;3.33;;;24.70;69.90;;;;;;5006141;28;20064;-87
2021/07/23 12:35:36;;;;;;;6.30;3.75;;;24.70;70.40;;;;;;4997386;28;20513;-86
2021/07/23 12:38:07;;;;;;;6.45;3.97;;;24.80;70.50;;;;;;4960537;28;20058;-84
2021/07/23 12:41:02;;;;;;;5.43;3.90;;;24.80;70.40;;;;;;4991982;28;20033;-87
2021/07/23 12:43:29;;;;;;;5.28;3.90;;;24.90;69.60;;;;;;4989329;28;20038;-87
2021/07/23 12:45:56;;;;;;;5.60;3.58;;;24.90;71.10;;;;;;4981540;28;20032;-86
2021/07/23 12:48:23;;;;;;;7.07;3.63;;;25.00;69.70;;;;;;4989068;28;20091;-88
2021/07/23 12:51:11;;;;;;;9.02;4.32;;;25.00;68.70;;;;;;4994348;28;20026;-87
2021/07/23 12:53:38;;;;;;;5.57;3.65;;;25.00;69.00;;;;;;4985224;28;20040;-86